sensor_id;sensor_type;location;lat;lon;timestamp;P1;durP1;ratioP1;P2;durP2;ratioP2
73632;SDS011;61927;50.080;14.418;2024-03-08T00:00:27;42.22;;;23.00;;
73632;SDS011;61927;50.080;14.418;2024-03-08T00:03:12;36.17;;;22.42;;
73632;SDS011;61927;50.080;14.418;2024-03-08T00:05:38;56.30;;;32.63;;
73632;SDS011;61927;50.080;14.418;2024-03-08T00:08:04;49.03;;;24.75;;
73632;SDS011;61927;50.080;14.418;2024-03-08T00:10:35;41.72;;;23.27;;
73632;SDS011;61927;50.080;14.418;2024-03-08T00:13:00;44.47;;;23.33;;
73632;SDS011;61927;50.080;14.418;2024-03-08T00:15:29;48.72;;;23.85;;
73632;SDS011;61927;50.080;14.418;2024-03-08T00:17:57;39.30;;;22.42;;
73632;SDS011;61927;50.080;14.418;2024-03-08T00:20:23;36.25;;;22.38;;
73632;SDS011;61927;50.080;14.418;2024-03-08T00:22:49;38.95;;;21.83;;
73632;SDS011;61927;50.080;14.418;2024-03-08T00:25:14;41.65;;;22.08;;
73632;SDS011;61927;50.080;14.418;2024-03-08T00:27:41;38.05;;;23.20;;
73632;SDS011;61927;50.080;14.418;2024-03-08T00:30:06;40.15;;;23.48;;
73632;SDS011;61927;50.080;14.418;2024-03-08T00:32:33;43.40;;;22.35;;
73632;SDS011;61927;50.080;14.418;2024-03-08T00:34:58;41.65;;;22.83;;
73632;SDS011;61927;50.080;14.418;2024-03-08T00:37:24;44.80;;;22.25;;
73632;SDS011;61927;50.080;14.418;2024-03-08T00:39:50;52.78;;;24.27;;
73632;SDS011;61927;50.080;14.418;2024-03-08T00:42:17;42.38;;;23.90;;
73632;SDS011;61927;50.080;14.418;2024-03-08T00:44:46;43.83;;;25.67;;
73632;SDS011;61927;50.080;14.418;2024-03-08T00:47:13;39.58;;;23.15;;
73632;SDS011;61927;50.080;14.418;2024-03-08T00:49:40;39.05;;;24.15;;
73632;SDS011;61927;50.080;14.418;2024-03-08T00:52:06;43.33;;;24.30;;
73632;SDS011;61927;50.080;14.418;2024-03-08T00:54:33;38.05;;;23.20;;
73632;SDS011;61927;50.080;14.418;2024-03-08T00:56:59;40.75;;;22.70;;
73632;SDS011;61927;50.080;14.418;2024-03-08T00:59:28;42.05;;;24.35;;
73632;SDS011;61927;50.080;14.418;2024-03-08T01:01:54;45.50;;;24.35;;
73632;SDS011;61927;50.080;14.418;2024-03-08T01:04:20;47.10;;;23.65;;
73632;SDS011;61927;50.080;14.418;2024-03-08T01:06:46;38.55;;;22.00;;
73632;SDS011;61927;50.080;14.418;2024-03-08T01:09:13;47.35;;;25.58;;
73632;SDS011;61927;50.080;14.418;2024-03-08T01:11:38;43.53;;;24.02;;
73632;SDS011;61927;50.080;14.418;2024-03-08T01:14:04;41.63;;;24.77;;
73632;SDS011;61927;50.080;14.418;2024-03-08T01:16:30;41.50;;;23.58;;
73632;SDS011;61927;50.080;14.418;2024-03-08T01:18:58;41.47;;;23.25;;
73632;SDS011;61927;50.080;14.418;2024-03-08T01:21:24;35.67;;;23.15;;
73632;SDS011;61927;50.080;14.418;2024-03-08T01:23:50;38.60;;;22.65;;
73632;SDS011;61927;50.080;14.418;2024-03-08T01:26:15;42.45;;;23.45;;
73632;SDS011;61927;50.080;14.418;2024-03-08T01:28:41;41.22;;;23.23;;
73632;SDS011;61927;50.080;14.418;2024-03-08T01:31:07;38.63;;;22.75;;
73632;SDS011;61927;50.080;14.418;2024-03-08T01:33:32;39.58;;;23.95;;
73632;SDS011;61927;50.080;14.418;2024-03-08T01:35:58;39.88;;;23.83;;
73632;SDS011;61927;50.080;14.418;2024-03-08T01:38:24;40.92;;;22.83;;
73632;SDS011;61927;50.080;14.418;2024-03-08T01:40:50;47.63;;;26.60;;
73632;SDS011;61927;50.080;14.418;2024-03-08T01:43:19;42.65;;;24.42;;
73632;SDS011;61927;50.080;14.418;2024-03-08T01:45:46;45.45;;;25.70;;
73632;SDS011;61927;50.080;14.418;2024-03-08T01:48:12;37.38;;;23.02;;
73632;SDS011;61927;50.080;14.418;2024-03-08T01:50:40;42.50;;;23.92;;
73632;SDS011;61927;50.080;14.418;2024-03-08T01:53:07;37.35;;;22.38;;
73632;SDS011;61927;50.080;14.418;2024-03-08T01:55:35;35.20;;;22.20;;
73632;SDS011;61927;50.080;14.418;2024-03-08T01:58:03;43.47;;;24.65;;
73632;SDS011;61927;50.080;14.418;2024-03-08T02:00:30;47.67;;;22.58;;
73632;SDS011;61927;50.080;14.418;2024-03-08T02:02:56;44.00;;;22.70;;
73632;SDS011;61927;50.080;14.418;2024-03-08T02:05:22;42.88;;;24.17;;
73632;SDS011;61927;50.080;14.418;2024-03-08T02:07:49;38.80;;;23.92;;
73632;SDS011;61927;50.080;14.418;2024-03-08T02:10:14;40.67;;;23.52;;
73632;SDS011;61927;50.080;14.418;2024-03-08T02:12:40;44.10;;;24.50;;
73632;SDS011;61927;50.080;14.418;2024-03-08T02:15:06;38.97;;;23.52;;
73632;SDS011;61927;50.080;14.418;2024-03-08T02:17:32;39.42;;;23.15;;
73632;SDS011;61927;50.080;14.418;2024-03-08T02:20:01;46.13;;;25.58;;
73632;SDS011;61927;50.080;14.418;2024-03-08T02:22:28;42.17;;;23.55;;
73632;SDS011;61927;50.080;14.418;2024-03-08T02:25:00;42.05;;;23.35;;
73632;SDS011;61927;50.080;14.418;2024-03-08T02:29:55;42.83;;;23.25;;
73632;SDS011;61927;50.080;14.418;2024-03-08T02:32:22;43.40;;;24.15;;
73632;SDS011;61927;50.080;14.418;2024-03-08T02:34:50;40.30;;;23.58;;
73632;SDS011;61927;50.080;14.418;2024-03-08T02:37:16;43.03;;;24.35;;
73632;SDS011;61927;50.080;14.418;2024-03-08T02:39:42;44.63;;;24.83;;
73632;SDS011;61927;50.080;14.418;2024-03-08T02:42:08;44.28;;;24.25;;
73632;SDS011;61927;50.080;14.418;2024-03-08T02:44:34;43.38;;;24.30;;
73632;SDS011;61927;50.080;14.418;2024-03-08T02:47:00;42.30;;;24.23;;
73632;SDS011;61927;50.080;14.418;2024-03-08T02:49:26;40.63;;;24.02;;
73632;SDS011;61927;50.080;14.418;2024-03-08T02:51:52;41.97;;;24.65;;
73632;SDS011;61927;50.080;14.418;2024-03-08T02:54:18;43.35;;;25.58;;
73632;SDS011;61927;50.080;14.418;2024-03-08T02:56:44;41.83;;;24.98;;
73632;SDS011;61927;50.080;14.418;2024-03-08T02:59:16;43.25;;;23.50;;
73632;SDS011;61927;50.080;14.418;2024-03-08T03:01:43;41.97;;;25.55;;
73632;SDS011;61927;50.080;14.418;2024-03-08T03:04:08;43.80;;;25.00;;
73632;SDS011;61927;50.080;14.418;2024-03-08T03:06:34;46.40;;;23.92;;
73632;SDS011;61927;50.080;14.418;2024-03-08T03:09:01;46.35;;;24.80;;
73632;SDS011;61927;50.080;14.418;2024-03-08T03:11:27;42.08;;;25.05;;
73632;SDS011;61927;50.080;14.418;2024-03-08T03:13:52;46.15;;;24.25;;
73632;SDS011;61927;50.080;14.418;2024-03-08T03:16:19;47.08;;;25.52;;
73632;SDS011;61927;50.080;14.418;2024-03-08T03:18:45;39.78;;;23.75;;
73632;SDS011;61927;50.080;14.418;2024-03-08T03:21:11;46.03;;;23.45;;
73632;SDS011;61927;50.080;14.418;2024-03-08T03:23:38;43.75;;;25.15;;
73632;SDS011;61927;50.080;14.418;2024-03-08T03:26:05;41.92;;;24.95;;
73632;SDS011;61927;50.080;14.418;2024-03-08T03:28:33;42.13;;;24.50;;
73632;SDS011;61927;50.080;14.418;2024-03-08T03:30:59;45.58;;;25.50;;
73632;SDS011;61927;50.080;14.418;2024-03-08T03:33:25;41.88;;;25.10;;
73632;SDS011;61927;50.080;14.418;2024-03-08T03:35:51;49.33;;;24.88;;
73632;SDS011;61927;50.080;14.418;2024-03-08T03:38:19;44.17;;;25.25;;
73632;SDS011;61927;50.080;14.418;2024-03-08T03:40:46;43.42;;;25.73;;
73632;SDS011;61927;50.080;14.418;2024-03-08T03:43:13;46.10;;;25.17;;
73632;SDS011;61927;50.080;14.418;2024-03-08T03:45:39;43.22;;;24.13;;
73632;SDS011;61927;50.080;14.418;2024-03-08T03:48:06;38.65;;;24.63;;
73632;SDS011;61927;50.080;14.418;2024-03-08T03:50:34;48.95;;;26.02;;
73632;SDS011;61927;50.080;14.418;2024-03-08T03:53:00;43.92;;;25.88;;
73632;SDS011;61927;50.080;14.418;2024-03-08T03:55:28;45.63;;;25.38;;
73632;SDS011;61927;50.080;14.418;2024-03-08T03:57:53;46.92;;;26.67;;
73632;SDS011;61927;50.080;14.418;2024-03-08T04:00:19;54.35;;;26.60;;
73632;SDS011;61927;50.080;14.418;2024-03-08T04:02:45;46.53;;;26.58;;
73632;SDS011;61927;50.080;14.418;2024-03-08T04:05:12;49.17;;;26.55;;
73632;SDS011;61927;50.080;14.418;2024-03-08T04:07:38;41.38;;;24.98;;
73632;SDS011;61927;50.080;14.418;2024-03-08T04:10:05;40.80;;;24.25;;
73632;SDS011;61927;50.080;14.418;2024-03-08T04:12:35;48.80;;;24.83;;
73632;SDS011;61927;50.080;14.418;2024-03-08T04:15:01;47.75;;;25.58;;
73632;SDS011;61927;50.080;14.418;2024-03-08T04:17:26;42.47;;;25.00;;
73632;SDS011;61927;50.080;14.418;2024-03-08T04:19:53;43.22;;;24.25;;
73632;SDS011;61927;50.080;14.418;2024-03-08T04:22:18;45.47;;;24.90;;
73632;SDS011;61927;50.080;14.418;2024-03-08T04:24:45;47.03;;;24.63;;
73632;SDS011;61927;50.080;14.418;2024-03-08T04:27:11;43.80;;;24.92;;
73632;SDS011;61927;50.080;14.418;2024-03-08T04:29:37;41.55;;;24.35;;
73632;SDS011;61927;50.080;14.418;2024-03-08T04:32:03;42.72;;;25.13;;
73632;SDS011;61927;50.080;14.418;2024-03-08T04:34:32;41.80;;;24.73;;
73632;SDS011;61927;50.080;14.418;2024-03-08T04:36:58;44.22;;;25.55;;
73632;SDS011;61927;50.080;14.418;2024-03-08T04:39:24;44.00;;;25.25;;
73632;SDS011;61927;50.080;14.418;2024-03-08T04:41:53;41.47;;;24.23;;
73632;SDS011;61927;50.080;14.418;2024-03-08T04:44:20;45.90;;;26.02;;
73632;SDS011;61927;50.080;14.418;2024-03-08T04:46:45;41.40;;;24.60;;
73632;SDS011;61927;50.080;14.418;2024-03-08T04:49:12;47.42;;;25.88;;
73632;SDS011;61927;50.080;14.418;2024-03-08T04:51:38;44.13;;;25.25;;
73632;SDS011;61927;50.080;14.418;2024-03-08T04:54:04;44.65;;;25.85;;
73632;SDS011;61927;50.080;14.418;2024-03-08T04:56:32;44.88;;;25.13;;
73632;SDS011;61927;50.080;14.418;2024-03-08T04:58:59;46.22;;;25.27;;
73632;SDS011;61927;50.080;14.418;2024-03-08T05:01:24;46.42;;;25.63;;
73632;SDS011;61927;50.080;14.418;2024-03-08T05:03:50;41.67;;;24.83;;
73632;SDS011;61927;50.080;14.418;2024-03-08T05:06:16;49.25;;;26.02;;
73632;SDS011;61927;50.080;14.418;2024-03-08T05:08:42;45.83;;;24.58;;
73632;SDS011;61927;50.080;14.418;2024-03-08T05:11:07;49.03;;;24.70;;
73632;SDS011;61927;50.080;14.418;2024-03-08T05:13:33;44.85;;;24.48;;
73632;SDS011;61927;50.080;14.418;2024-03-08T05:16:02;45.45;;;25.70;;
73632;SDS011;61927;50.080;14.418;2024-03-08T05:18:28;41.42;;;24.90;;
73632;SDS011;61927;50.080;14.418;2024-03-08T05:20:54;44.53;;;25.60;;
73632;SDS011;61927;50.080;14.418;2024-03-08T05:23:19;42.90;;;24.15;;
73632;SDS011;61927;50.080;14.418;2024-03-08T05:25:45;42.03;;;24.45;;
73632;SDS011;61927;50.080;14.418;2024-03-08T05:28:14;47.35;;;24.73;;
73632;SDS011;61927;50.080;14.418;2024-03-08T05:30:40;51.88;;;25.05;;
73632;SDS011;61927;50.080;14.418;2024-03-08T05:33:06;40.47;;;25.55;;
73632;SDS011;61927;50.080;14.418;2024-03-08T05:35:35;45.63;;;25.17;;
73632;SDS011;61927;50.080;14.418;2024-03-08T05:38:01;49.42;;;25.75;;
73632;SDS011;61927;50.080;14.418;2024-03-08T05:40:27;41.95;;;24.88;;
73632;SDS011;61927;50.080;14.418;2024-03-08T05:43:00;44.92;;;24.83;;
73632;SDS011;61927;50.080;14.418;2024-03-08T05:45:25;42.90;;;25.65;;
73632;SDS011;61927;50.080;14.418;2024-03-08T05:47:54;41.33;;;25.27;;
73632;SDS011;61927;50.080;14.418;2024-03-08T05:50:19;45.60;;;25.88;;
73632;SDS011;61927;50.080;14.418;2024-03-08T05:52:45;50.25;;;24.70;;
73632;SDS011;61927;50.080;14.418;2024-03-08T05:55:12;51.40;;;25.58;;
73632;SDS011;61927;50.080;14.418;2024-03-08T05:57:42;42.13;;;24.98;;
73632;SDS011;61927;50.080;14.418;2024-03-08T06:00:08;44.15;;;24.38;;
73632;SDS011;61927;50.080;14.418;2024-03-08T06:02:37;44.00;;;24.40;;
73632;SDS011;61927;50.080;14.418;2024-03-08T06:05:07;50.47;;;25.25;;
73632;SDS011;61927;50.080;14.418;2024-03-08T06:07:34;47.45;;;24.90;;
73632;SDS011;61927;50.080;14.418;2024-03-08T06:09:59;49.53;;;24.73;;
73632;SDS011;61927;50.080;14.418;2024-03-08T06:12:25;47.20;;;24.77;;
73632;SDS011;61927;50.080;14.418;2024-03-08T06:14:54;41.72;;;23.33;;
73632;SDS011;61927;50.080;14.418;2024-03-08T06:17:20;42.30;;;25.02;;
73632;SDS011;61927;50.080;14.418;2024-03-08T06:19:50;41.42;;;24.40;;
73632;SDS011;61927;50.080;14.418;2024-03-08T06:22:17;46.78;;;24.42;;
73632;SDS011;61927;50.080;14.418;2024-03-08T06:24:45;42.58;;;25.80;;
73632;SDS011;61927;50.080;14.418;2024-03-08T06:27:10;48.35;;;25.17;;
73632;SDS011;61927;50.080;14.418;2024-03-08T06:29:36;43.00;;;23.70;;
73632;SDS011;61927;50.080;14.418;2024-03-08T06:32:01;46.05;;;24.67;;
73632;SDS011;61927;50.080;14.418;2024-03-08T06:34:27;49.97;;;25.55;;
73632;SDS011;61927;50.080;14.418;2024-03-08T06:36:53;49.67;;;25.65;;
73632;SDS011;61927;50.080;14.418;2024-03-08T06:39:26;42.92;;;24.45;;
73632;SDS011;61927;50.080;14.418;2024-03-08T06:41:52;47.90;;;25.05;;
73632;SDS011;61927;50.080;14.418;2024-03-08T06:44:17;45.70;;;24.10;;
73632;SDS011;61927;50.080;14.418;2024-03-08T06:46:43;48.85;;;26.15;;
73632;SDS011;61927;50.080;14.418;2024-03-08T06:49:08;48.35;;;25.38;;
73632;SDS011;61927;50.080;14.418;2024-03-08T06:51:36;44.42;;;24.25;;
73632;SDS011;61927;50.080;14.418;2024-03-08T06:54:01;50.55;;;25.60;;
73632;SDS011;61927;50.080;14.418;2024-03-08T06:56:34;51.90;;;26.27;;
73632;SDS011;61927;50.080;14.418;2024-03-08T06:59:00;47.60;;;25.98;;
73632;SDS011;61927;50.080;14.418;2024-03-08T07:01:28;47.22;;;25.02;;
73632;SDS011;61927;50.080;14.418;2024-03-08T07:03:57;53.13;;;25.77;;
73632;SDS011;61927;50.080;14.418;2024-03-08T07:06:23;49.67;;;25.85;;
73632;SDS011;61927;50.080;14.418;2024-03-08T07:08:49;48.13;;;24.77;;
73632;SDS011;61927;50.080;14.418;2024-03-08T07:11:14;52.28;;;26.13;;
73632;SDS011;61927;50.080;14.418;2024-03-08T07:13:45;46.50;;;26.60;;
73632;SDS011;61927;50.080;14.418;2024-03-08T07:16:11;51.25;;;26.15;;
73632;SDS011;61927;50.080;14.418;2024-03-08T07:18:37;48.28;;;26.40;;
73632;SDS011;61927;50.080;14.418;2024-03-08T07:21:05;61.85;;;25.88;;
73632;SDS011;61927;50.080;14.418;2024-03-08T07:23:31;56.35;;;27.70;;
73632;SDS011;61927;50.080;14.418;2024-03-08T07:26:19;49.67;;;25.42;;
73632;SDS011;61927;50.080;14.418;2024-03-08T07:28:45;49.53;;;25.40;;
73632;SDS011;61927;50.080;14.418;2024-03-08T07:31:12;46.38;;;26.08;;
73632;SDS011;61927;50.080;14.418;2024-03-08T07:33:56;51.20;;;25.45;;
73632;SDS011;61927;50.080;14.418;2024-03-08T07:36:24;52.13;;;25.52;;
73632;SDS011;61927;50.080;14.418;2024-03-08T07:38:50;46.38;;;25.13;;
73632;SDS011;61927;50.080;14.418;2024-03-08T07:41:16;44.05;;;23.33;;
73632;SDS011;61927;50.080;14.418;2024-03-08T07:43:45;49.00;;;24.48;;
73632;SDS011;61927;50.080;14.418;2024-03-08T07:46:12;51.13;;;26.45;;
73632;SDS011;61927;50.080;14.418;2024-03-08T07:48:38;46.17;;;24.25;;
73632;SDS011;61927;50.080;14.418;2024-03-08T07:51:17;44.97;;;23.60;;
73632;SDS011;61927;50.080;14.418;2024-03-08T07:55:12;47.45;;;21.95;;
73632;SDS011;61927;50.080;14.418;2024-03-08T07:58:52;48.42;;;22.50;;
73632;SDS011;61927;50.080;14.418;2024-03-08T08:01:33;41.67;;;22.70;;
73632;SDS011;61927;50.080;14.418;2024-03-08T08:03:59;82.00;;;26.02;;
73632;SDS011;61927;50.080;14.418;2024-03-08T08:06:27;42.65;;;21.02;;
73632;SDS011;61927;50.080;14.418;2024-03-08T08:08:53;46.50;;;22.17;;
73632;SDS011;61927;50.080;14.418;2024-03-08T08:11:19;36.83;;;22.25;;
73632;SDS011;61927;50.080;14.418;2024-03-08T08:13:45;42.72;;;22.95;;
73632;SDS011;61927;50.080;14.418;2024-03-08T08:16:11;38.92;;;22.00;;
73632;SDS011;61927;50.080;14.418;2024-03-08T08:18:38;42.55;;;21.17;;
73632;SDS011;61927;50.080;14.418;2024-03-08T08:21:05;43.10;;;21.13;;
73632;SDS011;61927;50.080;14.418;2024-03-08T08:23:32;41.90;;;22.30;;
73632;SDS011;61927;50.080;14.418;2024-03-08T08:25:58;40.03;;;21.38;;
73632;SDS011;61927;50.080;14.418;2024-03-08T08:28:24;37.95;;;20.00;;
73632;SDS011;61927;50.080;14.418;2024-03-08T08:30:50;41.72;;;20.75;;
73632;SDS011;61927;50.080;14.418;2024-03-08T08:33:16;53.28;;;22.33;;
73632;SDS011;61927;50.080;14.418;2024-03-08T08:35:42;41.10;;;21.88;;
73632;SDS011;61927;50.080;14.418;2024-03-08T08:38:08;42.20;;;22.58;;
73632;SDS011;61927;50.080;14.418;2024-03-08T08:40:34;36.08;;;21.17;;
73632;SDS011;61927;50.080;14.418;2024-03-08T08:43:02;38.80;;;20.58;;
73632;SDS011;61927;50.080;14.418;2024-03-08T08:45:32;34.80;;;20.52;;
73632;SDS011;61927;50.080;14.418;2024-03-08T08:47:59;40.58;;;19.80;;
73632;SDS011;61927;50.080;14.418;2024-03-08T08:50:25;43.17;;;21.55;;
73632;SDS011;61927;50.080;14.418;2024-03-08T08:52:51;33.70;;;20.73;;
73632;SDS011;61927;50.080;14.418;2024-03-08T08:55:18;40.33;;;20.50;;
73632;SDS011;61927;50.080;14.418;2024-03-08T08:57:46;35.35;;;20.80;;
73632;SDS011;61927;50.080;14.418;2024-03-08T09:00:13;36.53;;;21.67;;
73632;SDS011;61927;50.080;14.418;2024-03-08T09:02:40;40.03;;;20.55;;
73632;SDS011;61927;50.080;14.418;2024-03-08T09:05:09;36.75;;;19.50;;
73632;SDS011;61927;50.080;14.418;2024-03-08T09:07:34;33.45;;;19.00;;
73632;SDS011;61927;50.080;14.418;2024-03-08T09:10:00;43.38;;;20.60;;
73632;SDS011;61927;50.080;14.418;2024-03-08T09:12:26;40.95;;;22.00;;
73632;SDS011;61927;50.080;14.418;2024-03-08T09:14:52;37.10;;;20.58;;
73632;SDS011;61927;50.080;14.418;2024-03-08T09:17:18;47.25;;;21.13;;
73632;SDS011;61927;50.080;14.418;2024-03-08T09:19:49;35.15;;;19.38;;
73632;SDS011;61927;50.080;14.418;2024-03-08T09:22:15;32.50;;;19.77;;
73632;SDS011;61927;50.080;14.418;2024-03-08T09:24:41;45.65;;;21.55;;
73632;SDS011;61927;50.080;14.418;2024-03-08T09:27:08;36.08;;;20.50;;
73632;SDS011;61927;50.080;14.418;2024-03-08T09:29:35;32.33;;;19.63;;
73632;SDS011;61927;50.080;14.418;2024-03-08T09:32:01;45.45;;;22.27;;
73632;SDS011;61927;50.080;14.418;2024-03-08T09:34:27;45.30;;;23.27;;
73632;SDS011;61927;50.080;14.418;2024-03-08T09:36:52;39.80;;;20.15;;
73632;SDS011;61927;50.080;14.418;2024-03-08T09:39:18;37.78;;;21.38;;
73632;SDS011;61927;50.080;14.418;2024-03-08T09:41:46;39.08;;;20.65;;
73632;SDS011;61927;50.080;14.418;2024-03-08T09:44:18;41.50;;;19.92;;
73632;SDS011;61927;50.080;14.418;2024-03-08T09:46:45;42.47;;;19.75;;
73632;SDS011;61927;50.080;14.418;2024-03-08T09:49:13;38.55;;;20.08;;
73632;SDS011;61927;50.080;14.418;2024-03-08T09:51:38;41.42;;;21.42;;
73632;SDS011;61927;50.080;14.418;2024-03-08T09:54:07;62.67;;;21.23;;
73632;SDS011;61927;50.080;14.418;2024-03-08T09:56:33;34.15;;;21.05;;
73632;SDS011;61927;50.080;14.418;2024-03-08T09:59:00;33.83;;;19.60;;
73632;SDS011;61927;50.080;14.418;2024-03-08T10:01:45;44.47;;;20.23;;
73632;SDS011;61927;50.080;14.418;2024-03-08T10:04:11;46.33;;;21.13;;
73632;SDS011;61927;50.080;14.418;2024-03-08T10:06:39;34.83;;;19.83;;
73632;SDS011;61927;50.080;14.418;2024-03-08T10:09:06;37.70;;;20.05;;
73632;SDS011;61927;50.080;14.418;2024-03-08T10:11:33;33.38;;;19.85;;
73632;SDS011;61927;50.080;14.418;2024-03-08T10:14:00;39.58;;;21.65;;
73632;SDS011;61927;50.080;14.418;2024-03-08T10:16:29;43.10;;;21.67;;
73632;SDS011;61927;50.080;14.418;2024-03-08T10:18:56;44.28;;;20.55;;
73632;SDS011;61927;50.080;14.418;2024-03-08T10:21:22;35.88;;;19.15;;
73632;SDS011;61927;50.080;14.418;2024-03-08T10:23:48;36.88;;;21.05;;
73632;SDS011;61927;50.080;14.418;2024-03-08T10:26:14;42.70;;;20.55;;
73632;SDS011;61927;50.080;14.418;2024-03-08T10:28:46;39.00;;;22.92;;
73632;SDS011;61927;50.080;14.418;2024-03-08T10:31:16;32.85;;;19.58;;
73632;SDS011;61927;50.080;14.418;2024-03-08T10:33:42;40.65;;;20.58;;
73632;SDS011;61927;50.080;14.418;2024-03-08T10:36:09;33.78;;;19.55;;
73632;SDS011;61927;50.080;14.418;2024-03-08T10:38:40;32.53;;;19.25;;
73632;SDS011;61927;50.080;14.418;2024-03-08T10:41:12;41.50;;;19.65;;
73632;SDS011;61927;50.080;14.418;2024-03-08T10:43:47;31.40;;;20.10;;
73632;SDS011;61927;50.080;14.418;2024-03-08T10:46:38;34.80;;;19.27;;
73632;SDS011;61927;50.080;14.418;2024-03-08T10:49:25;28.67;;;18.63;;
73632;SDS011;61927;50.080;14.418;2024-03-08T10:51:55;31.90;;;20.25;;
73632;SDS011;61927;50.080;14.418;2024-03-08T10:54:22;33.50;;;19.10;;
73632;SDS011;61927;50.080;14.418;2024-03-08T10:56:51;37.90;;;20.05;;
73632;SDS011;61927;50.080;14.418;2024-03-08T10:59:17;32.70;;;19.50;;
73632;SDS011;61927;50.080;14.418;2024-03-08T11:01:44;29.23;;;19.45;;
73632;SDS011;61927;50.080;14.418;2024-03-08T11:04:11;39.03;;;20.00;;
73632;SDS011;61927;50.080;14.418;2024-03-08T11:09:02;35.50;;;19.90;;
73632;SDS011;61927;50.080;14.418;2024-03-08T11:11:38;36.50;;;20.00;;
73632;SDS011;61927;50.080;14.418;2024-03-08T11:14:05;35.35;;;19.50;;
73632;SDS011;61927;50.080;14.418;2024-03-08T11:16:51;42.97;;;21.75;;
73632;SDS011;61927;50.080;14.418;2024-03-08T11:21:43;32.70;;;18.90;;
73632;SDS011;61927;50.080;14.418;2024-03-08T11:24:13;30.13;;;18.30;;
73632;SDS011;61927;50.080;14.418;2024-03-08T11:26:39;30.67;;;17.83;;
73632;SDS011;61927;50.080;14.418;2024-03-08T11:32:10;34.95;;;17.60;;
73632;SDS011;61927;50.080;14.418;2024-03-08T11:34:39;35.20;;;17.70;;
73632;SDS011;61927;50.080;14.418;2024-03-08T11:37:15;35.90;;;19.10;;
73632;SDS011;61927;50.080;14.418;2024-03-08T11:39:54;42.85;;;20.23;;
73632;SDS011;61927;50.080;14.418;2024-03-08T11:42:27;35.22;;;18.33;;
73632;SDS011;61927;50.080;14.418;2024-03-08T11:44:53;28.95;;;17.90;;
73632;SDS011;61927;50.080;14.418;2024-03-08T11:47:20;32.17;;;17.90;;
73632;SDS011;61927;50.080;14.418;2024-03-08T11:49:46;33.17;;;19.25;;
73632;SDS011;61927;50.080;14.418;2024-03-08T11:52:15;29.05;;;17.58;;
73632;SDS011;61927;50.080;14.418;2024-03-08T11:54:51;35.30;;;17.65;;
73632;SDS011;61927;50.080;14.418;2024-03-08T11:57:19;37.13;;;16.33;;
73632;SDS011;61927;50.080;14.418;2024-03-08T11:59:51;34.33;;;15.25;;
73632;SDS011;61927;50.080;14.418;2024-03-08T12:02:17;21.05;;;13.27;;
73632;SDS011;61927;50.080;14.418;2024-03-08T12:04:46;18.33;;;11.90;;
73632;SDS011;61927;50.080;14.418;2024-03-08T12:07:33;19.48;;;10.48;;
73632;SDS011;61927;50.080;14.418;2024-03-08T12:13:20;18.02;;;9.65;;
73632;SDS011;61927;50.080;14.418;2024-03-08T12:15:46;23.70;;;9.50;;
73632;SDS011;61927;50.080;14.418;2024-03-08T12:18:12;12.65;;;8.88;;
73632;SDS011;61927;50.080;14.418;2024-03-08T12:20:38;20.92;;;11.23;;
73632;SDS011;61927;50.080;14.418;2024-03-08T12:23:08;15.65;;;8.65;;
73632;SDS011;61927;50.080;14.418;2024-03-08T12:25:39;15.07;;;8.88;;
73632;SDS011;61927;50.080;14.418;2024-03-08T12:28:13;20.63;;;9.63;;
73632;SDS011;61927;50.080;14.418;2024-03-08T12:31:23;12.02;;;8.43;;
73632;SDS011;61927;50.080;14.418;2024-03-08T12:34:28;15.63;;;8.90;;
73632;SDS011;61927;50.080;14.418;2024-03-08T12:36:57;20.27;;;14.73;;
73632;SDS011;61927;50.080;14.418;2024-03-08T12:39:42;15.70;;;9.15;;
73632;SDS011;61927;50.080;14.418;2024-03-08T12:42:49;19.55;;;9.20;;
73632;SDS011;61927;50.080;14.418;2024-03-08T12:46:30;13.20;;;8.65;;
73632;SDS011;61927;50.080;14.418;2024-03-08T12:53:38;17.25;;;10.07;;
73632;SDS011;61927;50.080;14.418;2024-03-08T12:56:06;23.02;;;10.02;;
73632;SDS011;61927;50.080;14.418;2024-03-08T13:02:25;15.70;;;8.93;;
73632;SDS011;61927;50.080;14.418;2024-03-08T13:05:43;29.00;;;10.02;;
73632;SDS011;61927;50.080;14.418;2024-03-08T13:08:13;17.45;;;9.77;;
73632;SDS011;61927;50.080;14.418;2024-03-08T13:10:45;20.80;;;11.55;;
73632;SDS011;61927;50.080;14.418;2024-03-08T13:14:10;24.48;;;12.10;;
73632;SDS011;61927;50.080;14.418;2024-03-08T13:16:37;22.02;;;8.75;;
73632;SDS011;61927;50.080;14.418;2024-03-08T13:19:20;17.67;;;8.30;;
73632;SDS011;61927;50.080;14.418;2024-03-08T13:21:47;23.08;;;10.55;;
73632;SDS011;61927;50.080;14.418;2024-03-08T13:24:16;19.10;;;9.10;;
73632;SDS011;61927;50.080;14.418;2024-03-08T13:26:42;20.27;;;9.98;;
73632;SDS011;61927;50.080;14.418;2024-03-08T13:29:08;15.15;;;9.23;;
73632;SDS011;61927;50.080;14.418;2024-03-08T13:31:37;15.15;;;9.60;;
73632;SDS011;61927;50.080;14.418;2024-03-08T13:34:11;15.98;;;9.75;;
73632;SDS011;61927;50.080;14.418;2024-03-08T13:36:38;14.52;;;8.02;;
73632;SDS011;61927;50.080;14.418;2024-03-08T13:39:15;16.10;;;8.75;;
73632;SDS011;61927;50.080;14.418;2024-03-08T13:42:42;15.55;;;9.00;;
73632;SDS011;61927;50.080;14.418;2024-03-08T13:45:58;16.05;;;8.40;;
73632;SDS011;61927;50.080;14.418;2024-03-08T13:49:10;10.40;;;7.80;;
73632;SDS011;61927;50.080;14.418;2024-03-08T13:52:19;20.30;;;7.65;;
73632;SDS011;61927;50.080;14.418;2024-03-08T13:55:31;19.98;;;8.30;;
73632;SDS011;61927;50.080;14.418;2024-03-08T13:57:59;13.73;;;8.20;;
73632;SDS011;61927;50.080;14.418;2024-03-08T14:00:25;11.38;;;7.97;;
73632;SDS011;61927;50.080;14.418;2024-03-08T14:02:54;9.13;;;7.55;;
73632;SDS011;61927;50.080;14.418;2024-03-08T14:05:20;15.35;;;9.38;;
73632;SDS011;61927;50.080;14.418;2024-03-08T14:07:46;13.18;;;8.07;;
73632;SDS011;61927;50.080;14.418;2024-03-08T14:10:14;11.00;;;8.07;;
73632;SDS011;61927;50.080;14.418;2024-03-08T14:12:40;14.23;;;8.18;;
73632;SDS011;61927;50.080;14.418;2024-03-08T14:15:08;11.38;;;7.68;;
73632;SDS011;61927;50.080;14.418;2024-03-08T14:17:35;11.25;;;8.52;;
73632;SDS011;61927;50.080;14.418;2024-03-08T14:20:01;16.73;;;9.05;;
73632;SDS011;61927;50.080;14.418;2024-03-08T14:22:27;14.65;;;9.77;;
73632;SDS011;61927;50.080;14.418;2024-03-08T14:24:55;14.50;;;9.35;;
73632;SDS011;61927;50.080;14.418;2024-03-08T14:27:21;14.27;;;11.00;;
73632;SDS011;61927;50.080;14.418;2024-03-08T14:29:47;13.77;;;9.80;;
73632;SDS011;61927;50.080;14.418;2024-03-08T14:32:13;13.38;;;8.48;;
73632;SDS011;61927;50.080;14.418;2024-03-08T14:34:39;17.63;;;9.32;;
73632;SDS011;61927;50.080;14.418;2024-03-08T14:37:05;18.13;;;9.07;;
73632;SDS011;61927;50.080;14.418;2024-03-08T14:39:37;12.88;;;8.75;;
73632;SDS011;61927;50.080;14.418;2024-03-08T14:42:03;17.55;;;11.35;;
73632;SDS011;61927;50.080;14.418;2024-03-08T14:44:28;19.55;;;11.30;;
73632;SDS011;61927;50.080;14.418;2024-03-08T14:46:55;17.27;;;9.48;;